Time;durP1;ratioP1;P1;durP2;ratioP2;P2;SDS_P1;SDS_P2;PMS_P1;PMS_P2;Temp;Humidity;BMP_temperature;BMP_pressure;BME280_temperature;BME280_humidity;BME280_pressure;Samples;Min_cycle;Max_cycle;Signal;HPM_P1;HPM_P2
2024/01/20 00:01:12;;;;;;;34.97;18.37;;;0.10;99.90;;;;;;4773931;30;20624;-88
2024/01/20 00:03:38;;;;;;;32.50;17.30;;;0.10;99.90;;;;;;4773829;30;20257;-91
2024/01/20 00:06:04;;;;;;;31.57;17.43;;;0.10;99.90;;;;;;4773661;30;20252;-88
2024/01/20 00:08:30;;;;;;;32.53;17.93;;;0.00;99.90;;;;;;4789608;30;20191;-88
2024/01/20 00:10:56;;;;;;;28.20;17.60;;;0.00;99.90;;;;;;4782345;30;20184;-90
2024/01/20 00:13:22;;;;;;;29.83;16.90;;;0.00;99.90;;;;;;4759519;30;20647;-92
2024/01/20 00:15:48;;;;;;;28.27;17.70;;;0.00;99.90;;;;;;4774043;30;20191;-92
2024/01/20 00:18:13;;;;;;;25.97;17.33;;;0.10;99.90;;;;;;4765250;30;20721;-89
2024/01/20 00:20:39;;;;;;;28.33;17.20;;;0.10;99.90;;;;;;4769733;30;20191;-89
2024/01/20 00:23:05;;;;;;;30.13;16.87;;;0.20;99.90;;;;;;4773394;30;20214;-89
2024/01/20 00:25:31;;;;;;;25.53;15.87;;;0.20;99.90;;;;;;4773812;30;20539;-89
2024/01/20 00:27:56;;;;;;;32.23;16.80;;;0.20;99.90;;;;;;4773455;30;20632;-88
2024/01/20 00:30:23;;;;;;;23.60;16.00;;;0.20;99.90;;;;;;4759004;30;20203;-92
2024/01/20 00:32:49;;;;;;;36.90;17.57;;;0.20;99.90;;;;;;4773592;30;20199;-88
2024/01/20 00:35:15;;;;;;;29.17;16.87;;;0.20;99.90;;;;;;4773351;30;20345;-88
2024/01/20 00:37:40;;;;;;;28.43;16.67;;;0.20;99.90;;;;;;4773194;30;20203;-91
2024/01/20 00:40:07;;;;;;;29.00;17.07;;;0.20;99.90;;;;;;4789450;29;20203;-89
2024/01/20 00:42:32;;;;;;;31.83;17.93;;;0.20;99.90;;;;;;4789488;30;20278;-88
2024/01/20 00:44:58;;;;;;;28.27;16.13;;;0.20;99.90;;;;;;4773365;30;20293;-90
2024/01/20 00:47:24;;;;;;;27.57;17.20;;;0.10;99.90;;;;;;4773397;30;20520;-92
2024/01/20 00:49:49;;;;;;;26.30;16.13;;;0.20;99.90;;;;;;4782099;30;20200;-91
2024/01/20 00:52:15;;;;;;;26.10;16.53;;;0.20;99.90;;;;;;4789001;30;20300;-88
2024/01/20 00:54:41;;;;;;;32.30;16.93;;;0.20;99.90;;;;;;4773130;30;20199;-90
2024/01/20 00:57:06;;;;;;;28.87;16.33;;;0.20;99.90;;;;;;4771177;30;20213;-89
2024/01/20 00:59:32;;;;;;;35.27;18.03;;;0.10;99.90;;;;;;4766834;30;20286;-91
2024/01/20 01:01:58;;;;;;;31.47;17.80;;;0.20;99.90;;;;;;4765829;30;20259;-90
2024/01/20 01:04:24;;;;;;;29.17;16.60;;;0.20;99.90;;;;;;4773076;30;20235;-91
2024/01/20 01:06:49;;;;;;;26.90;16.13;;;0.10;99.90;;;;;;4772263;30;20202;-92
2024/01/20 01:09:15;;;;;;;30.30;16.77;;;0.20;99.90;;;;;;4765200;30;20540;-89
2024/01/20 01:11:41;;;;;;;29.00;16.97;;;0.20;99.90;;;;;;4772996;30;20195;-90
2024/01/20 01:14:07;;;;;;;28.67;17.30;;;0.10;99.90;;;;;;4781542;30;20195;-89
2024/01/20 01:16:32;;;;;;;28.40;16.77;;;0.10;99.90;;;;;;4768516;30;20200;-88
2024/01/20 01:18:58;;;;;;;29.80;16.17;;;0.10;99.90;;;;;;4762929;30;20261;-88
2024/01/20 01:21:24;;;;;;;32.53;16.20;;;0.10;99.90;;;;;;4765163;30;20206;-89
2024/01/20 01:23:49;;;;;;;26.47;16.10;;;0.10;99.90;;;;;;4788961;30;20230;-89
2024/01/20 01:26:16;;;;;;;30.80;16.33;;;0.10;99.90;;;;;;4772807;30;20199;-91
2024/01/20 01:31:19;;;;;;;28.20;16.33;;;0.10;99.90;;;;;;5011391;24;20252;-90
2024/01/20 01:33:45;;;;;;;29.27;16.23;;;0.20;99.90;;;;;;4738287;30;20207;-89
2024/01/20 01:36:11;;;;;;;31.30;16.47;;;0.20;99.90;;;;;;4723322;30;20197;-87
2024/01/20 01:38:36;;;;;;;31.50;16.77;;;0.20;99.90;;;;;;4753782;30;20196;-88
2024/01/20 01:41:03;;;;;;;27.37;16.57;;;0.20;99.90;;;;;;4738367;30;20605;-91
2024/01/20 01:43:29;;;;;;;26.37;16.53;;;0.20;99.90;;;;;;4746822;30;20220;-92
2024/01/20 01:45:55;;;;;;;31.10;16.57;;;0.30;99.90;;;;;;4730100;30;20197;-93
2024/01/20 01:48:21;;;;;;;29.73;16.97;;;0.30;99.90;;;;;;4753221;30;20230;-92
2024/01/20 01:50:49;;;;;;;29.57;15.43;;;0.40;99.90;;;;;;4754024;30;20621;-86
2024/01/20 01:53:15;;;;;;;29.73;16.10;;;0.30;99.90;;;;;;4738153;30;20197;-93
2024/01/20 01:55:43;;;;;;;24.17;15.50;;;0.40;99.90;;;;;;4753855;30;20200;-91
2024/01/20 01:58:09;;;;;;;27.37;17.23;;;0.40;99.90;;;;;;4746515;30;20194;-90
2024/01/20 02:00:35;;;;;;;29.77;16.17;;;0.40;99.90;;;;;;4735506;30;20207;-90
2024/01/20 02:03:03;;;;;;;29.60;16.67;;;0.50;99.90;;;;;;4737921;30;20299;-92
2024/01/20 02:05:29;;;;;;;30.50;17.33;;;0.50;99.90;;;;;;4738099;30;20236;-89
2024/01/20 02:07:57;;;;;;;24.70;15.73;;;0.50;99.90;;;;;;4746649;30;20216;-91
2024/01/20 02:10:23;;;;;;;28.60;16.30;;;0.50;99.90;;;;;;4723847;30;20219;-86
2024/01/20 02:12:50;;;;;;;32.70;17.70;;;0.50;99.90;;;;;;4730588;30;20628;-90
2024/01/20 02:15:16;;;;;;;27.30;16.90;;;0.50;99.90;;;;;;4730445;30;20243;-90
2024/01/20 02:17:49;;;;;;;26.53;17.00;;;0.60;99.90;;;;;;4738454;30;20196;-93
2024/01/20 02:20:15;;;;;;;26.60;16.70;;;0.60;99.90;;;;;;4740940;30;20207;-92
2024/01/20 02:22:43;;;;;;;27.50;16.70;;;0.50;99.90;;;;;;4756611;30;20184;-92
2024/01/20 02:25:09;;;;;;;26.43;17.30;;;0.60;99.90;;;;;;4740943;30;20200;-88
2024/01/20 02:27:34;;;;;;;29.20;16.93;;;0.60;99.90;;;;;;4756551;30;20185;-89
2024/01/20 02:30:00;;;;;;;26.33;16.90;;;0.60;99.90;;;;;;4732641;30;20249;-88
2024/01/20 02:32:26;;;;;;;25.63;17.00;;;0.60;99.90;;;;;;4737339;30;20192;-88
2024/01/20 02:34:52;;;;;;;28.23;16.80;;;0.60;99.90;;;;;;4737092;30;20188;-86
2024/01/20 02:37:17;;;;;;;31.13;19.23;;;0.60;99.90;;;;;;4756311;30;20199;-88
2024/01/20 02:39:43;;;;;;;31.20;18.30;;;0.60;99.90;;;;;;4756291;30;20646;-86
2024/01/20 02:42:10;;;;;;;28.70;18.07;;;0.60;99.90;;;;;;4740417;30;20200;-92
2024/01/20 02:44:39;;;;;;;33.90;18.73;;;0.70;99.90;;;;;;4740225;30;20216;-91
2024/01/20 02:47:05;;;;;;;29.40;17.67;;;0.60;99.90;;;;;;4739937;30;20185;-86
2024/01/20 02:49:31;;;;;;;27.53;17.90;;;0.60;99.90;;;;;;4739942;30;20287;-87
2024/01/20 02:51:58;;;;;;;30.47;19.07;;;0.60;99.90;;;;;;4740300;30;20204;-85
2024/01/20 02:54:23;;;;;;;27.33;16.80;;;0.60;99.90;;;;;;4726382;30;20188;-93
2024/01/20 02:56:49;;;;;;;31.93;17.80;;;0.60;99.90;;;;;;4733432;30;20212;-89
2024/01/20 02:59:15;;;;;;;32.93;18.23;;;0.60;99.90;;;;;;4732762;30;20246;-87
2024/01/20 03:01:40;;;;;;;29.13;17.93;;;0.70;99.90;;;;;;4724816;30;20711;-91
2024/01/20 03:04:06;;;;;;;30.97;18.57;;;0.60;99.90;;;;;;4737844;30;20574;-91
2024/01/20 03:06:32;;;;;;;28.83;17.30;;;0.60;99.90;;;;;;4755666;30;20530;-91
2024/01/20 03:08:58;;;;;;;28.83;17.30;;;0.60;99.90;;;;;;4739957;30;20261;-89
2024/01/20 03:11:24;;;;;;;31.67;17.60;;;0.60;99.90;;;;;;4739997;30;20628;-91
2024/01/20 03:13:50;;;;;;;29.30;16.27;;;0.60;99.90;;;;;;4740321;30;20617;-89
2024/01/20 03:16:16;;;;;;;31.43;17.87;;;0.60;99.90;;;;;;4738936;30;20228;-87
2024/01/20 03:18:41;;;;;;;32.10;17.20;;;0.60;99.90;;;;;;4739441;30;20355;-91
2024/01/20 03:21:07;;;;;;;29.60;18.53;;;0.60;99.90;;;;;;4755576;30;20195;-88
2024/01/20 03:23:40;;;;;;;29.93;17.53;;;0.60;99.90;;;;;;4739774;30;20225;-88
2024/01/20 03:26:10;;;;;;;29.83;17.47;;;0.60;99.90;;;;;;4739587;30;20196;-87
2024/01/20 03:28:40;;;;;;;31.97;18.20;;;0.60;99.90;;;;;;4732199;30;20203;-92
2024/01/20 03:31:06;;;;;;;33.43;18.07;;;0.60;99.90;;;;;;4731288;30;20244;-91
2024/01/20 03:33:32;;;;;;;30.70;17.33;;;0.60;99.90;;;;;;4755301;30;20246;-90
2024/01/20 03:35:58;;;;;;;31.90;17.33;;;0.60;99.90;;;;;;4755171;30;20204;-89
2024/01/20 03:38:23;;;;;;;30.50;18.10;;;0.60;99.90;;;;;;4739475;30;20284;-89
2024/01/20 03:40:49;;;;;;;27.57;16.20;;;0.60;99.90;;;;;;4739378;30;20280;-90
2024/01/20 03:43:15;;;;;;;31.43;17.60;;;0.60;99.90;;;;;;4739255;30;20216;-88
2024/01/20 03:45:43;;;;;;;28.53;17.33;;;0.60;99.90;;;;;;4739011;30;20204;-87
2024/01/20 03:48:09;;;;;;;30.10;17.60;;;0.50;99.90;;;;;;4738941;30;20204;-89
2024/01/20 03:50:35;;;;;;;31.07;18.17;;;0.60;99.90;;;;;;4739207;30;20204;-91
2024/01/20 03:53:10;;;;;;;31.57;19.57;;;0.60;99.90;;;;;;4739267;30;20204;-90
2024/01/20 03:55:36;;;;;;;27.93;17.83;;;0.50;99.90;;;;;;4739030;30;20192;-90
2024/01/20 03:58:02;;;;;;;28.60;18.00;;;0.50;99.90;;;;;;4738359;30;20203;-88
2024/01/20 04:00:28;;;;;;;31.60;18.57;;;0.60;99.90;;;;;;4730285;30;20675;-89
2024/01/20 04:02:54;;;;;;;33.47;18.90;;;0.60;99.90;;;;;;4739156;30;20680;-91
2024/01/20 04:05:19;;;;;;;31.47;18.13;;;0.60;99.90;;;;;;4754911;30;20327;-87
2024/01/20 04:07:46;;;;;;;32.73;18.83;;;0.60;99.90;;;;;;4738696;30;20534;-88
2024/01/20 04:10:11;;;;;;;34.60;20.00;;;0.60;99.90;;;;;;4738527;30;20193;-87
2024/01/20 04:12:40;;;;;;;33.57;18.80;;;0.60;99.90;;;;;;4738343;30;20202;-91
2024/01/20 04:15:06;;;;;;;33.13;18.27;;;0.60;99.90;;;;;;4754803;30;20193;-91
2024/01/20 04:17:32;;;;;;;31.77;18.90;;;0.60;99.90;;;;;;4731129;30;20216;-86
2024/01/20 04:19:58;;;;;;;30.30;18.47;;;0.60;99.90;;;;;;4738162;30;20239;-87
2024/01/20 04:22:23;;;;;;;31.20;18.87;;;0.60;99.90;;;;;;4738725;30;20185;-88
2024/01/20 04:24:49;;;;;;;35.33;18.77;;;0.60;99.90;;;;;;4739144;30;20751;-91
2024/01/20 04:27:15;;;;;;;39.37;20.07;;;0.60;99.90;;;;;;4748288;30;20234;-91
2024/01/20 04:29:40;;;;;;;35.83;20.17;;;0.60;99.90;;;;;;4739468;30;20290;-92
2024/01/20 04:32:06;;;;;;;32.13;19.03;;;0.60;99.90;;;;;;4736342;30;20203;-87
2024/01/20 04:37:20;;;;;;;31.80;18.63;;;0.70;99.90;;;;;;4755260;30;20207;-91
2024/01/20 04:39:46;;;;;;;34.83;18.03;;;0.70;99.90;;;;;;4739133;30;20547;-89
2024/01/20 04:42:11;;;;;;;32.80;18.23;;;0.70;99.90;;;;;;4747901;30;20194;-90
2024/01/20 04:44:37;;;;;;;33.50;18.97;;;0.70;99.90;;;;;;4739349;30;20225;-93
2024/01/20 04:47:03;;;;;;;30.67;18.00;;;0.70;99.90;;;;;;4731855;30;20189;-91
2024/01/20 04:49:29;;;;;;;32.47;17.90;;;0.70;99.90;;;;;;4732012;30;20655;-87
2024/01/20 04:51:57;;;;;;;30.13;17.63;;;0.70;99.90;;;;;;4730977;30;20201;-90
2024/01/20 04:54:30;;;;;;;31.37;17.53;;;0.70;99.90;;;;;;4754737;30;20196;-92
2024/01/20 04:56:57;;;;;;;32.67;18.20;;;0.70;99.90;;;;;;4738585;30;20208;-88
2024/01/20 04:59:23;;;;;;;28.37;17.70;;;0.70;99.90;;;;;;4731687;30;20197;-92
2024/01/20 05:01:48;;;;;;;30.70;17.53;;;0.70;99.90;;;;;;4730446;30;20212;-89
2024/01/20 05:04:16;;;;;;;26.27;16.43;;;0.70;99.90;;;;;;4730242;30;20229;-89
2024/01/20 05:06:45;;;;;;;31.57;16.87;;;0.70;99.90;;;;;;4738430;30;20625;-92
2024/01/20 05:09:12;;;;;;;31.13;17.43;;;0.70;99.90;;;;;;4738757;30;20192;-89
2024/01/20 05:11:38;;;;;;;29.60;16.33;;;0.70;99.90;;;;;;4738688;30;20189;-92
2024/01/20 05:14:05;;;;;;;32.60;17.00;;;0.70;99.90;;;;;;4738831;30;20247;-92
2024/01/20 05:16:31;;;;;;;27.80;16.93;;;0.70;99.90;;;;;;4731080;30;20208;-89
2024/01/20 05:18:56;;;;;;;30.77;16.77;;;0.70;99.90;;;;;;4738596;30;20586;-89
2024/01/20 05:21:22;;;;;;;30.10;16.87;;;0.70;99.90;;;;;;4754003;30;20288;-89
2024/01/20 05:23:49;;;;;;;29.43;17.00;;;0.70;99.90;;;;;;4738258;30;20231;-88
2024/01/20 05:26:15;;;;;;;25.10;15.20;;;0.60;99.90;;;;;;4729169;30;20512;-89
2024/01/20 05:28:41;;;;;;;29.50;15.97;;;0.60;99.90;;;;;;4733019;30;20202;-87
2024/01/20 05:31:07;;;;;;;28.23;16.07;;;0.60;99.90;;;;;;4735644;30;20680;-90
2024/01/20 05:33:37;;;;;;;29.33;15.60;;;0.50;99.90;;;;;;4738198;30;20204;-91
2024/01/20 05:36:03;;;;;;;24.27;15.17;;;0.50;99.90;;;;;;4746352;30;20273;-93
2024/01/20 05:38:28;;;;;;;22.57;14.70;;;0.40;99.90;;;;;;4737878;30;20200;-92
2024/01/20 05:40:56;;;;;;;25.47;15.43;;;0.40;99.90;;;;;;4734409;30;20263;-94
2024/01/20 05:43:28;;;;;;;25.60;15.10;;;0.40;99.90;;;;;;4737987;30;20216;-94
2024/01/20 05:45:53;;;;;;;27.83;15.27;;;0.40;99.90;;;;;;4737989;30;20216;-94
2024/01/20 05:48:19;;;;;;;26.17;15.47;;;0.40;99.90;;;;;;4731158;30;20222;-92
2024/01/20 05:50:51;;;;;;;25.03;15.20;;;0.30;99.90;;;;;;4738206;30;20582;-90
2024/01/20 05:53:18;;;;;;;27.03;15.13;;;0.20;99.90;;;;;;4732536;30;20193;-90
2024/01/20 05:55:43;;;;;;;26.03;14.83;;;0.20;99.90;;;;;;4741655;30;20185;-92
2024/01/20 05:58:09;;;;;;;27.53;14.50;;;0.20;99.90;;;;;;4757204;30;20192;-93
2024/01/20 06:00:35;;;;;;;28.83;14.90;;;0.20;99.90;;;;;;4739320;30;20203;-93
2024/01/20 06:03:00;;;;;;;23.13;14.13;;;0.20;99.90;;;;;;4734181;30;20219;-94
2024/01/20 06:05:26;;;;;;;27.33;14.37;;;0.20;99.90;;;;;;4741852;30;20526;-91
2024/01/20 06:07:52;;;;;;;22.57;13.33;;;0.10;99.90;;;;;;4741230;30;20200;-90
2024/01/20 06:10:17;;;;;;;24.33;13.73;;;0.10;99.90;;;;;;4741131;30;20192;-89
2024/01/20 06:12:43;;;;;;;28.13;14.70;;;0.10;99.90;;;;;;4757031;30;20578;-90
2024/01/20 06:15:10;;;;;;;27.30;14.10;;;0.10;99.90;;;;;;4733863;30;20206;-90
2024/01/20 06:17:35;;;;;;;22.10;13.17;;;0.10;99.90;;;;;;4740811;30;20201;-94
2024/01/20 06:20:03;;;;;;;23.27;13.40;;;0.00;99.90;;;;;;4742313;30;20190;-92
2024/01/20 06:22:29;;;;;;;22.43;13.37;;;0.10;99.90;;;;;;4757064;30;20203;-88
2024/01/20 06:24:57;;;;;;;20.93;12.37;;;0.00;99.90;;;;;;4740867;30;20228;-89
2024/01/20 06:27:23;;;;;;;21.10;13.07;;;0.00;99.90;;;;;;4756741;30;20276;-91
2024/01/20 06:29:48;;;;;;;24.13;13.00;;;0.00;99.90;;;;;;4739887;30;20224;-91
2024/01/20 06:32:16;;;;;;;24.07;12.63;;;0.00;99.90;;;;;;4732326;30;20203;-91
2024/01/20 06:34:50;;;;;;;24.37;12.57;;;0.00;99.90;;;;;;4740952;30;20227;-91
2024/01/20 06:37:16;;;;;;;21.17;11.73;;;0.00;99.90;;;;;;4740684;30;20191;-96
2024/01/20 06:39:42;;;;;;;25.20;12.57;;;0.00;99.90;;;;;;4756356;30;20188;-91
2024/01/20 06:42:11;;;;;;;20.50;12.17;;;0.00;99.90;;;;;;4733334;30;20280;-92
2024/01/20 06:44:41;;;;;;;18.43;11.43;;;0.00;99.90;;;;;;4740530;30;20233;-90
2024/01/20 06:47:07;;;;;;;18.40;11.00;;;0.00;99.90;;;;;;4738166;30;20204;-92
2024/01/20 06:49:33;;;;;;;18.13;11.07;;;0.00;99.90;;;;;;4727905;30;20197;-90
2024/01/20 06:51:59;;;;;;;20.00;11.37;;;0.00;99.90;;;;;;4725108;30;20194;-92
2024/01/20 06:54:31;;;;;;;22.63;11.23;;;0.00;99.90;;;;;;4725569;30;20216;-89
2024/01/20 06:56:56;;;;;;;21.27;11.03;;;0.00;99.90;;;;;;4729439;30;20185;-91
2024/01/20 06:59:22;;;;;;;25.17;11.37;;;0.00;99.90;;;;;;4724801;30;20203;-91
2024/01/20 07:01:47;;;;;;;17.30;10.77;;;-0.10;99.90;;;;;;4726839;30;20185;-89
2024/01/20 07:04:13;;;;;;;23.03;11.20;;;0.00;99.90;;;;;;4730496;30;20311;-93
2024/01/20 07:06:39;;;;;;;24.70;11.47;;;0.00;99.90;;;;;;4727121;30;20625;-95
2024/01/20 07:09:05;;;;;;;20.37;10.90;;;-0.10;99.90;;;;;;4729902;30;20192;-92
2024/01/20 07:11:34;;;;;;;23.03;10.83;;;-0.10;99.90;;;;;;4732340;30;20192;-93
2024/01/20 07:14:00;;;;;;;20.90;11.07;;;-0.10;99.90;;;;;;4730729;30;20243;-94
2024/01/20 07:16:26;;;;;;;20.93;10.67;;;-0.10;99.90;;;;;;4755634;30;20193;-92
2024/01/20 07:18:52;;;;;;;16.87;10.07;;;-0.10;99.90;;;;;;4736636;30;20192;-90
2024/01/20 07:21:18;;;;;;;19.93;10.27;;;-0.10;99.90;;;;;;4755277;30;20185;-88
2024/01/20 07:23:44;;;;;;;20.43;10.53;;;-0.10;99.90;;;;;;4739338;30;20248;-91
2024/01/20 07:26:10;;;;;;;18.30;9.43;;;-0.10;99.90;;;;;;4738219;30;20580;-89
2024/01/20 07:28:36;;;;;;;19.87;10.20;;;-0.10;99.90;;;;;;4739462;30;20262;-90
2024/01/20 07:31:02;;;;;;;17.40;9.90;;;-0.10;99.90;;;;;;4726756;30;20242;-89
2024/01/20 07:33:28;;;;;;;16.80;9.20;;;-0.10;99.90;;;;;;4736443;30;20196;-89
2024/01/20 07:35:59;;;;;;;16.87;9.47;;;-0.10;99.90;;;;;;4723054;30;20284;-91
2024/01/20 07:38:25;;;;;;;27.07;10.13;;;-0.10;99.90;;;;;;4720334;30;20189;-89
2024/01/20 07:40:53;;;;;;;17.77;9.97;;;-0.20;99.90;;;;;;4732674;30;20710;-92
2024/01/20 07:43:20;;;;;;;15.93;9.10;;;-0.20;99.90;;;;;;4737529;30;20234;-91
2024/01/20 07:45:46;;;;;;;16.33;9.40;;;-0.20;99.90;;;;;;4736483;30;20193;-90
2024/01/20 07:48:12;;;;;;;18.20;10.20;;;-0.20;99.90;;;;;;4737571;30;20242;-90
2024/01/20 07:50:37;;;;;;;16.60;9.30;;;-0.20;99.90;;;;;;4729428;30;20193;-90
2024/01/20 07:53:03;;;;;;;16.13;8.97;;;-0.20;99.90;;;;;;4730561;30;20645;-91
2024/01/20 07:55:31;;;;;;;14.83;9.10;;;-0.20;99.90;;;;;;4730320;30;20753;-90
2024/01/20 07:57:57;;;;;;;19.27;9.80;;;-0.30;99.90;;;;;;4736302;30;20520;-90
2024/01/20 08:00:23;;;;;;;16.93;10.00;;;-0.30;99.90;;;;;;4726721;30;20201;-92
2024/01/20 08:02:48;;;;;;;16.07;9.20;;;-0.30;99.90;;;;;;4728342;30;20583;-91
2024/01/20 08:05:14;;;;;;;18.93;9.50;;;-0.30;99.90;;;;;;4737003;30;20581;-93
2024/01/20 08:07:39;;;;;;;20.67;10.37;;;-0.30;99.90;;;;;;4736088;30;20181;-89
2024/01/20 08:10:06;;;;;;;15.27;9.00;;;-0.30;99.90;;;;;;4734765;30;20277;-91
2024/01/20 08:12:31;;;;;;;17.20;9.30;;;-0.30;99.90;;;;;;4737154;30;20251;-94
2024/01/20 08:14:57;;;;;;;18.47;9.37;;;-0.30;99.90;;;;;;4730871;30;20185;-93
2024/01/20 08:17:31;;;;;;;18.90;10.13;;;-0.30;99.90;;;;;;4728942;30;20196;-91
2024/01/20 08:19:57;;;;;;;16.97;9.73;;;-0.30;99.90;;;;;;4736911;30;20193;-94
2024/01/20 08:22:23;;;;;;;17.53;9.77;;;-0.30;99.90;;;;;;4729049;30;20661;-90
2024/01/20 08:24:48;;;;;;;16.77;10.57;;;-0.30;99.90;;;;;;4736456;30;20221;-93
2024/01/20 08:27:14;;;;;;;17.47;10.27;;;-0.20;99.90;;;;;;4736324;30;20198;-92
2024/01/20 08:29:40;;;;;;;26.97;10.60;;;-0.20;99.90;;;;;;4737336;30;20200;-92
2024/01/20 08:32:06;;;;;;;19.00;9.60;;;-0.20;99.90;;;;;;4732151;30;20288;-94
2024/01/20 08:34:31;;;;;;;24.30;10.87;;;-0.10;99.90;;;;;;4754769;30;20204;-93
2024/01/20 08:36:58;;;;;;;18.50;10.03;;;-0.10;99.90;;;;;;4739576;30;20196;-92
2024/01/20 08:39:24;;;;;;;23.87;10.80;;;0.00;99.90;;;;;;4735791;30;20335;-93
2024/01/20 08:41:49;;;;;;;21.23;10.40;;;0.00;99.90;;;;;;4739069;30;20279;-93
2024/01/20 08:44:15;;;;;;;20.43;10.20;;;0.00;99.90;;;;;;4729985;30;20228;-91
2024/01/20 08:46:41;;;;;;;15.83;10.67;;;0.10;99.90;;;;;;4741303;30;20188;-93
2024/01/20 08:49:07;;;;;;;19.93;11.17;;;0.10;99.90;;;;;;4739242;30;20649;-94
2024/01/20 08:51:33;;;;;;;20.77;9.97;;;0.20;99.90;;;;;;4736036;30;20192;-95
2024/01/20 08:53:58;;;;;;;18.83;10.97;;;0.20;99.90;;;;;;4739129;30;20274;-91
2024/01/20 08:56:25;;;;;;;22.93;11.30;;;0.20;99.90;;;;;;4735707;30;20254;-96
2024/01/20 08:58:50;;;;;;;25.23;11.50;;;0.30;99.90;;;;;;4754795;30;20257;-91
2024/01/20 09:01:17;;;;;;;21.33;10.40;;;0.30;99.90;;;;;;4754465;30;20193;-95
2024/01/20 09:03:43;;;;;;;18.37;10.30;;;0.30;99.90;;;;;;4727325;30;20569;-92
2024/01/20 09:06:11;;;;;;;22.43;11.10;;;0.30;99.90;;;;;;4736298;30;20296;-91
2024/01/20 09:08:37;;;;;;;19.47;10.77;;;0.40;99.90;;;;;;4730362;30;20190;-94
2024/01/20 09:11:03;;;;;;;18.17;10.13;;;0.50;99.90;;;;;;4726182;30;20230;-88
2024/01/20 09:13:29;;;;;;;18.97;11.07;;;0.50;99.90;;;;;;4733892;30;20636;-92
2024/01/20 09:15:54;;;;;;;15.60;10.60;;;0.50;99.90;;;;;;4731886;30;20201;-91
2024/01/20 09:18:28;;;;;;;21.80;10.87;;;0.50;99.90;;;;;;4746515;30;20193;-94
2024/01/20 09:20:54;;;;;;;19.43;10.67;;;0.50;99.90;;;;;;4731858;30;20292;-88
2024/01/20 09:23:20;;;;;;;22.70;10.43;;;0.50;99.90;;;;;;4737382;30;20707;-88
2024/01/20 09:25:46;;;;;;;19.70;10.63;;;0.50;99.90;;;;;;4732663;30;20225;-89
2024/01/20 09:28:12;;;;;;;21.13;10.13;;;0.60;99.90;;;;;;4738105;30;20216;-92
2024/01/20 09:30:39;;;;;;;23.43;10.67;;;0.60;99.90;;;;;;4756960;30;20278;-92
2024/01/20 09:33:04;;;;;;;26.30;11.67;;;0.70;99.90;;;;;;4734050;30;20196;-86
2024/01/20 09:35:31;;;;;;;21.90;11.37;;;0.70;99.90;;;;;;4741782;30;20192;-87
2024/01/20 09:38:00;;;;;;;20.40;10.87;;;0.70;99.90;;;;;;4734537;30;20655;-89
2024/01/20 09:40:26;;;;;;;19.27;10.10;;;0.80;99.90;;;;;;4741960;30;20188;-91
2024/01/20 09:42:52;;;;;;;18.57;9.83;;;0.80;99.90;;;;;;4754308;30;20197;-90
2024/01/20 09:45:18;;;;;;;16.37;10.20;;;0.80;99.90;;;;;;4749268;30;20199;-88
2024/01/20 09:48:02;;;;;;;20.73;10.50;;;0.90;99.90;;;;;;4757010;30;20269;-88
2024/01/20 09:50:28;;;;;;;20.57;9.87;;;0.90;99.90;;;;;;4734568;30;20269;-89
2024/01/20 09:52:58;;;;;;;16.50;9.60;;;0.90;99.90;;;;;;4741822;30;20569;-92
2024/01/20 09:55:26;;;;;;;18.00;10.00;;;1.00;99.90;;;;;;4738596;30;20201;-92
2024/01/20 09:58:02;;;;;;;15.77;9.47;;;1.10;99.90;;;;;;4753087;30;20192;-90
2024/01/20 10:00:29;;;;;;;15.13;9.03;;;1.20;99.90;;;;;;4741045;30;20200;-88
2024/01/20 10:02:55;;;;;;;17.87;9.60;;;1.30;99.90;;;;;;4756963;30;20188;-92
2024/01/20 10:05:24;;;;;;;21.17;10.30;;;1.30;99.90;;;;;;4734018;30;20351;-88
2024/01/20 10:07:57;;;;;;;17.40;9.67;;;1.40;99.90;;;;;;4740809;30;20279;-92
2024/01/20 10:10:23;;;;;;;17.67;9.23;;;1.30;99.90;;;;;;4733764;30;20196;-89
2024/01/20 10:12:55;;;;;;;18.30;9.83;;;1.30;99.90;;;;;;4730710;30;20537;-90
2024/01/20 10:15:25;;;;;;;21.30;10.53;;;1.30;99.90;;;;;;4740366;30;20201;-91
2024/01/20 10:17:51;;;;;;;17.67;10.37;;;1.30;99.90;;;;;;4740804;30;20621;-88
2024/01/20 10:20:21;;;;;;;21.10;10.67;;;1.30;99.90;;;;;;4740884;30;20196;-89
2024/01/20 10:22:48;;;;;;;23.53;10.67;;;1.40;99.90;;;;;;4740558;30;20219;-92
2024/01/20 10:25:19;;;;;;;19.73;10.63;;;1.40;99.90;;;;;;4740606;30;20644;-91
2024/01/20 10:27:49;;;;;;;15.67;10.03;;;1.40;99.90;;;;;;4740373;30;20242;-87
2024/01/20 10:30:20;;;;;;;20.30;10.07;;;1.40;99.90;;;;;;4737113;30;20241;-91
2024/01/20 10:32:48;;;;;;;18.67;10.43;;;1.40;99.90;;;;;;4737215;30;20216;-88
2024/01/20 10:35:14;;;;;;;17.67;10.43;;;1.40;99.90;;;;;;4730400;30;20197;-90
2024/01/20 10:37:50;;;;;;;16.73;9.20;;;1.50;99.90;;;;;;4737214;30;20193;-86
2024/01/20 10:40:17;;;;;;;17.17;9.80;;;1.50;99.90;;;;;;4729862;30;20204;-87
2024/01/20 10:42:45;;;;;;;20.00;10.23;;;1.50;99.90;;;;;;4735278;30;20638;-93
2024/01/20 10:45:19;;;;;;;19.30;10.33;;;1.50;99.90;;;;;;4735514;30;20287;-87
2024/01/20 10:48:10;;;;;;;18.13;9.43;;;1.60;99.90;;;;;;4736828;30;20646;-87
2024/01/20 10:50:41;;;;;;;16.73;9.73;;;1.60;99.90;;;;;;4730918;30;20259;-89
2024/01/20 10:53:08;;;;;;;17.57;9.00;;;1.70;99.90;;;;;;4736073;30;20231;-90
2024/01/20 10:55:35;;;;;;;19.23;9.33;;;1.70;99.90;;;;;;4726836;30;20661;-87
2024/01/20 10:58:05;;;;;;;16.53;9.63;;;1.80;99.90;;;;;;4734041;30;20197;-90
2024/01/20 11:00:32;;;;;;;14.97;8.40;;;1.90;99.90;;;;;;4738306;30;20189;-88
2024/01/20 11:02:58;;;;;;;17.10;9.23;;;2.00;99.90;;;;;;4736640;30;20198;-89
2024/01/20 11:05:25;;;;;;;15.07;9.43;;;2.00;99.90;;;;;;4730651;30;20634;-88
2024/01/20 11:08:04;;;;;;;21.40;9.60;;;2.00;99.90;;;;;;4737855;30;20189;-88
2024/01/20 11:10:37;;;;;;;16.97;9.03;;;2.10;99.90;;;;;;4737105;30;20197;-90
2024/01/20 11:13:07;;;;;;;18.37;9.27;;;2.10;99.90;;;;;;4730331;30;20203;-92
2024/01/20 11:15:34;;;;;;;18.33;8.93;;;2.10;99.90;;;;;;4737951;30;20323;-90
2024/01/20 11:18:00;;;;;;;15.90;9.30;;;2.30;99.90;;;;;;4736632;30;20197;-88
2024/01/20 11:20:32;;;;;;;20.40;8.93;;;2.30;99.90;;;;;;4736926;30;20229;-89
2024/01/20 11:22:57;;;;;;;16.27;8.57;;;2.40;99.90;;;;;;4736919;30;20285;-92
2024/01/20 11:25:31;;;;;;;16.07;8.20;;;2.50;99.90;;;;;;4735263;30;20261;-88
2024/01/20 11:27:58;;;;;;;16.67;9.37;;;2.40;99.90;;;;;;4733056;30;20258;-89
2024/01/20 11:30:34;;;;;;;15.93;9.00;;;2.30;99.90;;;;;;4735806;30;20241;-90
2024/01/20 11:33:08;;;;;;;15.47;8.20;;;2.30;99.90;;;;;;4728941;30;20535;-88
2024/01/20 11:35:37;;;;;;;13.43;8.43;;;2.40;99.90;;;;;;4731630;30;20193;-90
2024/01/20 11:38:04;;;;;;;20.43;9.40;;;2.40;99.90;;;;;;4736416;30;20190;-93
2024/01/20 11:40:35;;;;;;;17.43;9.23;;;2.40;99.90;;;;;;4736015;30;20201;-90
2024/01/20 11:43:06;;;;;;;13.80;8.10;;;2.50;99.90;;;;;;4733426;30;20182;-87
2024/01/20 11:45:31;;;;;;;18.80;8.97;;;2.70;99.90;;;;;;4731019;30;20204;-93
2024/01/20 11:47:57;;;;;;;14.67;8.20;;;2.80;99.90;;;;;;4736193;30;20193;-91
2024/01/20 11:50:26;;;;;;;11.83;7.77;;;2.70;99.90;;;;;;4735765;30;20201;-90
2024/01/20 11:52:51;;;;;;;15.57;9.13;;;2.80;99.90;;;;;;4737512;30;20215;-88
2024/01/20 11:55:17;;;;;;;19.17;8.47;;;2.80;99.90;;;;;;4736731;30;20193;-88
2024/01/20 11:57:43;;;;;;;14.37;8.27;;;2.70;99.90;;;;;;4738250;30;20181;-89
2024/01/20 12:00:11;;;;;;;13.63;7.90;;;2.70;99.90;;;;;;4737008;30;20551;-90
2024/01/20 12:02:59;;;;;;;15.77;8.30;;;2.80;99.90;;;;;;4729072;30;20200;-91
2024/01/20 12:05:26;;;;;;;15.93;7.77;;;2.90;99.90;;;;;;4733771;30;20237;-89
2024/01/20 12:07:52;;;;;;;15.47;8.60;;;2.90;99.90;;;;;;4732641;30;21004;-91
2024/01/20 12:10:23;;;;;;;12.10;7.70;;;2.90;99.90;;;;;;4736716;30;20705;-89
2024/01/20 12:12:48;;;;;;;22.50;8.23;;;2.90;99.90;;;;;;4726260;30;20189;-92
2024/01/20 12:15:15;;;;;;;14.73;7.80;;;3.00;99.90;;;;;;4732823;30;20271;-88
2024/01/20 12:17:41;;;;;;;10.93;7.00;;;3.00;99.90;;;;;;4731116;30;20288;-89
2024/01/20 12:20:09;;;;;;;16.70;7.67;;;3.10;99.90;;;;;;4728771;30;20288;-87
2024/01/20 12:22:36;;;;;;;14.90;7.63;;;3.10;99.90;;;;;;4736096;30;20204;-88
2024/01/20 12:25:01;;;;;;;11.37;6.83;;;3.10;99.90;;;;;;4737285;30;20213;-89
2024/01/20 12:27:27;;;;;;;17.17;7.57;;;3.10;99.90;;;;;;4736094;30;20927;-90
2024/01/20 12:29:54;;;;;;;14.20;6.87;;;3.00;99.90;;;;;;4736956;30;20254;-87
2024/01/20 12:32:20;;;;;;;17.50;7.80;;;3.00;99.90;;;;;;4738329;30;20212;-92
2024/01/20 12:34:45;;;;;;;13.10;7.63;;;2.90;99.90;;;;;;4738394;30;20204;-88
2024/01/20 12:37:11;;;;;;;13.03;7.63;;;2.80;99.90;;;;;;4738414;30;20220;-91
2024/01/20 12:39:38;;;;;;;15.43;7.50;;;2.80;99.90;;;;;;4738623;30;20283;-89
2024/01/20 12:42:05;;;;;;;15.23;7.17;;;2.70;99.90;;;;;;4738654;30;20641;-89